sensor_id;sensor_type;location;lat;lon;timestamp;temperature;humidity
83289;DHT22;73193;50.866;5.420;2024-01-11T00:01:08;-3.50;60.10
83289;DHT22;73193;50.866;5.420;2024-01-11T00:02:38;-3.40;59.70
83289;DHT22;73193;50.866;5.420;2024-01-11T00:04:09;-3.50;60.00
83289;DHT22;73193;50.866;5.420;2024-01-11T00:05:40;-3.50;60.60
83289;DHT22;73193;50.866;5.420;2024-01-11T00:07:12;-3.50;60.10
83289;DHT22;73193;50.866;5.420;2024-01-11T00:08:43;-3.50;60.40
83289;DHT22;73193;50.866;5.420;2024-01-11T00:10:13;-3.50;59.90
83289;DHT22;73193;50.866;5.420;2024-01-11T00:11:44;-3.60;60.00
83289;DHT22;73193;50.866;5.420;2024-01-11T00:13:15;-3.60;60.30
83289;DHT22;73193;50.866;5.420;2024-01-11T00:14:45;-3.60;60.20
83289;DHT22;73193;50.866;5.420;2024-01-11T00:16:16;-3.80;60.30
83289;DHT22;73193;50.866;5.420;2024-01-11T00:17:47;-3.80;60.50
83289;DHT22;73193;50.866;5.420;2024-01-11T00:19:17;-3.80;60.80
83289;DHT22;73193;50.866;5.420;2024-01-11T00:20:48;-3.80;60.60
83289;DHT22;73193;50.866;5.420;2024-01-11T00:22:19;-3.80;60.40
83289;DHT22;73193;50.866;5.420;2024-01-11T00:23:49;-3.80;60.80
83289;DHT22;73193;50.866;5.420;2024-01-11T00:25:20;-3.80;60.20
83289;DHT22;73193;50.866;5.420;2024-01-11T00:26:51;-3.80;59.80
83289;DHT22;73193;50.866;5.420;2024-01-11T00:28:21;-3.90;60.20
83289;DHT22;73193;50.866;5.420;2024-01-11T00:29:53;-4.00;60.60
83289;DHT22;73193;50.866;5.420;2024-01-11T00:31:23;-4.00;60.70
83289;DHT22;73193;50.866;5.420;2024-01-11T00:32:54;-4.00;60.50
83289;DHT22;73193;50.866;5.420;2024-01-11T00:34:25;-3.90;60.30
83289;DHT22;73193;50.866;5.420;2024-01-11T00:35:56;-3.90;60.00
83289;DHT22;73193;50.866;5.420;2024-01-11T00:37:26;-3.90;59.90
83289;DHT22;73193;50.866;5.420;2024-01-11T00:38:57;-3.90;59.80
83289;DHT22;73193;50.866;5.420;2024-01-11T00:40:28;-3.80;60.10
83289;DHT22;73193;50.866;5.420;2024-01-11T00:41:58;-3.80;60.20
83289;DHT22;73193;50.866;5.420;2024-01-11T00:43:29;-4.00;60.50
83289;DHT22;73193;50.866;5.420;2024-01-11T00:45:00;-4.00;60.30
83289;DHT22;73193;50.866;5.420;2024-01-11T00:46:30;-3.90;59.90
83289;DHT22;73193;50.866;5.420;2024-01-11T00:48:01;-3.90;59.30
83289;DHT22;73193;50.866;5.420;2024-01-11T00:49:33;-3.90;59.80
83289;DHT22;73193;50.866;5.420;2024-01-11T00:51:07;-4.00;60.80
83289;DHT22;73193;50.866;5.420;2024-01-11T00:52:37;-4.00;61.00
83289;DHT22;73193;50.866;5.420;2024-01-11T00:54:08;-4.00;61.10
83289;DHT22;73193;50.866;5.420;2024-01-11T00:55:39;-4.00;61.10
83289;DHT22;73193;50.866;5.420;2024-01-11T00:57:10;-4.00;60.50
83289;DHT22;73193;50.866;5.420;2024-01-11T00:58:41;-3.90;60.30
83289;DHT22;73193;50.866;5.420;2024-01-11T01:00:12;-4.00;60.10
83289;DHT22;73193;50.866;5.420;2024-01-11T01:01:49;-4.00;60.40
83289;DHT22;73193;50.866;5.420;2024-01-11T01:03:21;-3.90;60.10
83289;DHT22;73193;50.866;5.420;2024-01-11T01:04:52;-3.90;60.00
83289;DHT22;73193;50.866;5.420;2024-01-11T01:06:22;-4.00;60.80
83289;DHT22;73193;50.866;5.420;2024-01-11T01:07:53;-4.00;60.90
83289;DHT22;73193;50.866;5.420;2024-01-11T01:09:24;-4.00;60.60
83289;DHT22;73193;50.866;5.420;2024-01-11T01:10:55;-4.00;60.80
83289;DHT22;73193;50.866;5.420;2024-01-11T01:12:25;-4.00;60.80
83289;DHT22;73193;50.866;5.420;2024-01-11T01:13:56;-4.00;60.70
83289;DHT22;73193;50.866;5.420;2024-01-11T01:15:27;-4.00;60.40
83289;DHT22;73193;50.866;5.420;2024-01-11T01:16:57;-4.00;60.20
83289;DHT22;73193;50.866;5.420;2024-01-11T01:18:28;-4.00;60.10
83289;DHT22;73193;50.866;5.420;2024-01-11T01:19:59;-4.00;60.20
83289;DHT22;73193;50.866;5.420;2024-01-11T01:21:29;-4.00;60.30
83289;DHT22;73193;50.866;5.420;2024-01-11T01:23:03;-4.00;60.10
83289;DHT22;73193;50.866;5.420;2024-01-11T01:24:34;-4.00;59.70
83289;DHT22;73193;50.866;5.420;2024-01-11T01:26:06;-4.00;59.70
83289;DHT22;73193;50.866;5.420;2024-01-11T01:27:36;-4.00;59.70
83289;DHT22;73193;50.866;5.420;2024-01-11T01:29:07;-4.00;59.70
83289;DHT22;73193;50.866;5.420;2024-01-11T01:30:37;-4.00;59.70
83289;DHT22;73193;50.866;5.420;2024-01-11T01:32:08;-4.00;59.80
83289;DHT22;73193;50.866;5.420;2024-01-11T01:33:40;-4.00;59.90
83289;DHT22;73193;50.866;5.420;2024-01-11T01:35:11;-4.00;60.00
83289;DHT22;73193;50.866;5.420;2024-01-11T01:36:41;-4.00;60.20
83289;DHT22;73193;50.866;5.420;2024-01-11T01:38:12;-4.10;60.80
83289;DHT22;73193;50.866;5.420;2024-01-11T01:39:43;-4.10;60.60
83289;DHT22;73193;50.866;5.420;2024-01-11T01:41:13;-4.10;60.40
83289;DHT22;73193;50.866;5.420;2024-01-11T01:42:45;-4.00;60.00
83289;DHT22;73193;50.866;5.420;2024-01-11T01:44:16;-4.10;59.60
83289;DHT22;73193;50.866;5.420;2024-01-11T01:45:47;-4.10;60.10
83289;DHT22;73193;50.866;5.420;2024-01-11T01:47:18;-4.20;60.30
83289;DHT22;73193;50.866;5.420;2024-01-11T01:48:50;-4.20;60.60
83289;DHT22;73193;50.866;5.420;2024-01-11T01:50:21;-4.10;60.70
83289;DHT22;73193;50.866;5.420;2024-01-11T01:51:53;-4.10;60.70
83289;DHT22;73193;50.866;5.420;2024-01-11T01:53:26;-4.10;60.10
83289;DHT22;73193;50.866;5.420;2024-01-11T01:54:58;-4.10;60.10
83289;DHT22;73193;50.866;5.420;2024-01-11T01:56:30;-4.10;60.50
83289;DHT22;73193;50.866;5.420;2024-01-11T01:58:03;-4.10;60.30
83289;DHT22;73193;50.866;5.420;2024-01-11T01:59:34;-4.10;60.30
83289;DHT22;73193;50.866;5.420;2024-01-11T02:01:05;-4.10;60.70
83289;DHT22;73193;50.866;5.420;2024-01-11T02:02:36;-4.10;60.50
83289;DHT22;73193;50.866;5.420;2024-01-11T02:04:07;-4.20;60.70
83289;DHT22;73193;50.866;5.420;2024-01-11T02:05:38;-4.10;60.40
83289;DHT22;73193;50.866;5.420;2024-01-11T02:07:09;-4.20;60.00
83289;DHT22;73193;50.866;5.420;2024-01-11T02:08:42;-4.20;60.00
83289;DHT22;73193;50.866;5.420;2024-01-11T02:10:13;-4.20;59.70
83289;DHT22;73193;50.866;5.420;2024-01-11T02:11:45;-4.10;59.70
83289;DHT22;73193;50.866;5.420;2024-01-11T02:13:15;-4.10;60.00
83289;DHT22;73193;50.866;5.420;2024-01-11T02:14:46;-4.10;59.90
83289;DHT22;73193;50.866;5.420;2024-01-11T02:16:17;-4.10;59.70
83289;DHT22;73193;50.866;5.420;2024-01-11T02:17:48;-4.10;59.80
83289;DHT22;73193;50.866;5.420;2024-01-11T02:19:19;-4.10;59.70
83289;DHT22;73193;50.866;5.420;2024-01-11T02:20:50;-4.10;59.50
83289;DHT22;73193;50.866;5.420;2024-01-11T02:22:29;-4.10;59.40
83289;DHT22;73193;50.866;5.420;2024-01-11T02:24:04;-4.20;59.20
83289;DHT22;73193;50.866;5.420;2024-01-11T02:25:34;-4.20;59.40
83289;DHT22;73193;50.866;5.420;2024-01-11T02:27:05;-4.20;59.30
83289;DHT22;73193;50.866;5.420;2024-01-11T02:28:36;-4.10;58.80
83289;DHT22;73193;50.866;5.420;2024-01-11T02:30:07;-4.10;59.20
83289;DHT22;73193;50.866;5.420;2024-01-11T02:31:38;-4.20;59.10
83289;DHT22;73193;50.866;5.420;2024-01-11T02:33:09;-4.20;59.40
83289;DHT22;73193;50.866;5.420;2024-01-11T02:34:39;-4.20;59.60
83289;DHT22;73193;50.866;5.420;2024-01-11T02:36:10;-4.20;59.50
83289;DHT22;73193;50.866;5.420;2024-01-11T02:37:42;-4.20;59.10
83289;DHT22;73193;50.866;5.420;2024-01-11T02:39:15;-4.20;59.10
83289;DHT22;73193;50.866;5.420;2024-01-11T02:40:48;-4.20;59.10
83289;DHT22;73193;50.866;5.420;2024-01-11T02:42:20;-4.30;59.30
83289;DHT22;73193;50.866;5.420;2024-01-11T02:43:51;-4.30;60.00
83289;DHT22;73193;50.866;5.420;2024-01-11T02:45:22;-4.20;59.80
83289;DHT22;73193;50.866;5.420;2024-01-11T02:46:53;-4.20;59.50
83289;DHT22;73193;50.866;5.420;2024-01-11T02:48:28;-4.20;59.60
83289;DHT22;73193;50.866;5.420;2024-01-11T02:49:59;-4.20;59.80
83289;DHT22;73193;50.866;5.420;2024-01-11T02:51:29;-4.20;59.70
83289;DHT22;73193;50.866;5.420;2024-01-11T02:53:00;-4.20;59.50
83289;DHT22;73193;50.866;5.420;2024-01-11T02:54:30;-4.10;59.30
83289;DHT22;73193;50.866;5.420;2024-01-11T02:56:02;-4.10;59.70
83289;DHT22;73193;50.866;5.420;2024-01-11T02:57:32;-4.20;60.40
83289;DHT22;73193;50.866;5.420;2024-01-11T02:59:03;-4.20;60.40
83289;DHT22;73193;50.866;5.420;2024-01-11T03:00:34;-4.20;60.30
83289;DHT22;73193;50.866;5.420;2024-01-11T03:02:04;-4.30;60.70
83289;DHT22;73193;50.866;5.420;2024-01-11T03:03:35;-4.30;60.70
83289;DHT22;73193;50.866;5.420;2024-01-11T03:05:06;-4.20;60.10
83289;DHT22;73193;50.866;5.420;2024-01-11T03:06:36;-4.20;59.90
83289;DHT22;73193;50.866;5.420;2024-01-11T03:08:07;-4.20;60.50
83289;DHT22;73193;50.866;5.420;2024-01-11T03:09:38;-4.20;60.80
83289;DHT22;73193;50.866;5.420;2024-01-11T03:11:08;-4.20;60.90
83289;DHT22;73193;50.866;5.420;2024-01-11T03:12:39;-4.20;60.40
83289;DHT22;73193;50.866;5.420;2024-01-11T03:14:10;-4.20;60.00
83289;DHT22;73193;50.866;5.420;2024-01-11T03:15:41;-4.20;60.10
83289;DHT22;73193;50.866;5.420;2024-01-11T03:17:11;-4.20;60.30
83289;DHT22;73193;50.866;5.420;2024-01-11T03:18:42;-4.10;59.80
83289;DHT22;73193;50.866;5.420;2024-01-11T03:20:13;-4.10;59.80
83289;DHT22;73193;50.866;5.420;2024-01-11T03:21:45;-4.20;59.90
83289;DHT22;73193;50.866;5.420;2024-01-11T03:23:16;-4.10;59.70
83289;DHT22;73193;50.866;5.420;2024-01-11T03:24:47;-4.10;59.40
83289;DHT22;73193;50.866;5.420;2024-01-11T03:26:18;-4.10;59.40
83289;DHT22;73193;50.866;5.420;2024-01-11T03:27:49;-4.10;59.70
83289;DHT22;73193;50.866;5.420;2024-01-11T03:29:19;-4.10;59.70
83289;DHT22;73193;50.866;5.420;2024-01-11T03:30:50;-4.10;59.40
83289;DHT22;73193;50.866;5.420;2024-01-11T03:32:20;-4.10;59.40
83289;DHT22;73193;50.866;5.420;2024-01-11T03:33:51;-4.10;59.50
83289;DHT22;73193;50.866;5.420;2024-01-11T03:35:22;-4.10;59.40
83289;DHT22;73193;50.866;5.420;2024-01-11T03:36:52;-4.20;59.40
83289;DHT22;73193;50.866;5.420;2024-01-11T03:38:23;-4.10;59.20
83289;DHT22;73193;50.866;5.420;2024-01-11T03:39:54;-4.10;59.10
83289;DHT22;73193;50.866;5.420;2024-01-11T03:41:24;-4.10;59.30
83289;DHT22;73193;50.866;5.420;2024-01-11T03:42:55;-4.20;59.70
83289;DHT22;73193;50.866;5.420;2024-01-11T03:44:26;-4.20;60.10
83289;DHT22;73193;50.866;5.420;2024-01-11T03:45:56;-4.20;60.10
83289;DHT22;73193;50.866;5.420;2024-01-11T03:47:27;-4.10;59.90
83289;DHT22;73193;50.866;5.420;2024-01-11T03:48:57;-4.20;60.10
83289;DHT22;73193;50.866;5.420;2024-01-11T03:50:30;-4.10;60.00
83289;DHT22;73193;50.866;5.420;2024-01-11T03:52:00;-4.20;60.10
83289;DHT22;73193;50.866;5.420;2024-01-11T03:53:34;-4.20;60.00
83289;DHT22;73193;50.866;5.420;2024-01-11T03:55:06;-4.20;59.80
83289;DHT22;73193;50.866;5.420;2024-01-11T03:56:38;-4.20;59.90
83289;DHT22;73193;50.866;5.420;2024-01-11T03:58:09;-4.20;60.20
83289;DHT22;73193;50.866;5.420;2024-01-11T03:59:40;-4.30;60.40
83289;DHT22;73193;50.866;5.420;2024-01-11T04:01:11;-4.30;61.00
83289;DHT22;73193;50.866;5.420;2024-01-11T04:02:42;-4.30;61.00
83289;DHT22;73193;50.866;5.420;2024-01-11T04:04:12;-4.30;60.80
83289;DHT22;73193;50.866;5.420;2024-01-11T04:05:43;-4.30;60.60
83289;DHT22;73193;50.866;5.420;2024-01-11T04:07:14;-4.30;60.30
83289;DHT22;73193;50.866;5.420;2024-01-11T04:08:44;-4.30;60.20
83289;DHT22;73193;50.866;5.420;2024-01-11T04:10:18;-4.20;60.40
83289;DHT22;73193;50.866;5.420;2024-01-11T04:11:48;-4.30;61.00
83289;DHT22;73193;50.866;5.420;2024-01-11T04:13:19;-4.30;61.10
83289;DHT22;73193;50.866;5.420;2024-01-11T04:14:49;-4.30;61.00
83289;DHT22;73193;50.866;5.420;2024-01-11T04:16:21;-4.30;60.70
83289;DHT22;73193;50.866;5.420;2024-01-11T04:17:51;-4.30;60.30
83289;DHT22;73193;50.866;5.420;2024-01-11T04:19:22;-4.20;60.30
83289;DHT22;73193;50.866;5.420;2024-01-11T04:20:53;-4.30;60.20
83289;DHT22;73193;50.866;5.420;2024-01-11T04:22:23;-4.20;60.10
83289;DHT22;73193;50.866;5.420;2024-01-11T04:23:54;-4.30;60.20
83289;DHT22;73193;50.866;5.420;2024-01-11T04:25:25;-4.30;60.60
83289;DHT22;73193;50.866;5.420;2024-01-11T04:26:56;-4.40;60.90
83289;DHT22;73193;50.866;5.420;2024-01-11T04:28:26;-4.40;60.60
83289;DHT22;73193;50.866;5.420;2024-01-11T04:29:57;-4.40;60.80
83289;DHT22;73193;50.866;5.420;2024-01-11T04:31:28;-4.40;60.40
83289;DHT22;73193;50.866;5.420;2024-01-11T04:32:58;-4.40;61.10
83289;DHT22;73193;50.866;5.420;2024-01-11T04:34:29;-4.40;60.90
83289;DHT22;73193;50.866;5.420;2024-01-11T04:36:00;-4.40;61.50
83289;DHT22;73193;50.866;5.420;2024-01-11T04:37:30;-4.40;61.30
83289;DHT22;73193;50.866;5.420;2024-01-11T04:39:01;-4.40;61.50
83289;DHT22;73193;50.866;5.420;2024-01-11T04:40:31;-4.40;61.50
83289;DHT22;73193;50.866;5.420;2024-01-11T04:42:02;-4.40;61.40
83289;DHT22;73193;50.866;5.420;2024-01-11T04:43:33;-4.40;60.90
83289;DHT22;73193;50.866;5.420;2024-01-11T04:45:05;-4.40;61.00
83289;DHT22;73193;50.866;5.420;2024-01-11T04:46:36;-4.40;60.50
83289;DHT22;73193;50.866;5.420;2024-01-11T04:48:07;-4.40;60.30
83289;DHT22;73193;50.866;5.420;2024-01-11T04:49:37;-4.40;60.70
83289;DHT22;73193;50.866;5.420;2024-01-11T04:51:10;-4.40;60.40
83289;DHT22;73193;50.866;5.420;2024-01-11T04:52:41;-4.40;60.80
83289;DHT22;73193;50.866;5.420;2024-01-11T04:54:12;-4.50;61.20
83289;DHT22;73193;50.866;5.420;2024-01-11T04:55:42;-4.40;60.80
83289;DHT22;73193;50.866;5.420;2024-01-11T04:57:13;-4.40;61.00
83289;DHT22;73193;50.866;5.420;2024-01-11T04:58:44;-4.40;60.90
83289;DHT22;73193;50.866;5.420;2024-01-11T05:00:15;-4.40;60.90
83289;DHT22;73193;50.866;5.420;2024-01-11T05:01:46;-4.40;60.80
83289;DHT22;73193;50.866;5.420;2024-01-11T05:03:17;-4.40;61.00
83289;DHT22;73193;50.866;5.420;2024-01-11T05:04:48;-4.50;61.10
83289;DHT22;73193;50.866;5.420;2024-01-11T05:06:20;-4.40;60.70
83289;DHT22;73193;50.866;5.420;2024-01-11T05:07:52;-4.40;60.70
83289;DHT22;73193;50.866;5.420;2024-01-11T05:09:22;-4.50;60.40
83289;DHT22;73193;50.866;5.420;2024-01-11T05:10:53;-4.50;60.50
83289;DHT22;73193;50.866;5.420;2024-01-11T05:12:24;-4.50;60.20
83289;DHT22;73193;50.866;5.420;2024-01-11T05:13:54;-4.50;61.30
83289;DHT22;73193;50.866;5.420;2024-01-11T05:15:25;-4.50;60.70
83289;DHT22;73193;50.866;5.420;2024-01-11T05:16:56;-4.50;60.70
83289;DHT22;73193;50.866;5.420;2024-01-11T05:18:26;-4.40;60.80
83289;DHT22;73193;50.866;5.420;2024-01-11T05:19:57;-4.40;60.70
83289;DHT22;73193;50.866;5.420;2024-01-11T05:21:28;-4.40;60.50
83289;DHT22;73193;50.866;5.420;2024-01-11T05:22:59;-4.40;60.30
83289;DHT22;73193;50.866;5.420;2024-01-11T05:24:31;-4.40;59.90
83289;DHT22;73193;50.866;5.420;2024-01-11T05:26:01;-4.40;60.50
83289;DHT22;73193;50.866;5.420;2024-01-11T05:27:32;-4.40;60.90
83289;DHT22;73193;50.866;5.420;2024-01-11T05:29:03;-4.40;61.00
83289;DHT22;73193;50.866;5.420;2024-01-11T05:30:35;-4.40;61.00
83289;DHT22;73193;50.866;5.420;2024-01-11T05:32:05;-4.40;61.50
83289;DHT22;73193;50.866;5.420;2024-01-11T05:33:37;-4.40;61.60
83289;DHT22;73193;50.866;5.420;2024-01-11T05:35:08;-4.40;61.50
83289;DHT22;73193;50.866;5.420;2024-01-11T05:36:39;-4.30;61.00
83289;DHT22;73193;50.866;5.420;2024-01-11T05:38:09;-4.30;60.70
83289;DHT22;73193;50.866;5.420;2024-01-11T05:39:40;-4.40;60.40
83289;DHT22;73193;50.866;5.420;2024-01-11T05:41:11;-4.30;60.70
83289;DHT22;73193;50.866;5.420;2024-01-11T05:42:42;-4.40;60.50
83289;DHT22;73193;50.866;5.420;2024-01-11T05:44:12;-4.40;60.80
83289;DHT22;73193;50.866;5.420;2024-01-11T05:45:43;-4.40;61.20
83289;DHT22;73193;50.866;5.420;2024-01-11T05:47:14;-4.40;60.40
83289;DHT22;73193;50.866;5.420;2024-01-11T05:48:44;-4.40;61.00
83289;DHT22;73193;50.866;5.420;2024-01-11T05:50:15;-4.40;60.70
83289;DHT22;73193;50.866;5.420;2024-01-11T05:51:46;-4.30;61.20
83289;DHT22;73193;50.866;5.420;2024-01-11T05:53:16;-4.40;61.40
83289;DHT22;73193;50.866;5.420;2024-01-11T05:54:51;-4.40;60.70
83289;DHT22;73193;50.866;5.420;2024-01-11T05:56:21;-4.40;60.70
83289;DHT22;73193;50.866;5.420;2024-01-11T05:57:52;-4.40;60.70
83289;DHT22;73193;50.866;5.420;2024-01-11T05:59:23;-4.40;60.80
83289;DHT22;73193;50.866;5.420;2024-01-11T06:00:53;-4.40;60.60
83289;DHT22;73193;50.866;5.420;2024-01-11T06:02:26;-4.30;60.50
83289;DHT22;73193;50.866;5.420;2024-01-11T06:03:56;-4.40;60.80
83289;DHT22;73193;50.866;5.420;2024-01-11T06:05:27;-4.40;60.40
83289;DHT22;73193;50.866;5.420;2024-01-11T06:06:57;-4.30;60.30
83289;DHT22;73193;50.866;5.420;2024-01-11T06:08:29;-4.40;60.40
83289;DHT22;73193;50.866;5.420;2024-01-11T06:10:01;-4.40;60.80
83289;DHT22;73193;50.866;5.420;2024-01-11T06:11:33;-4.40;60.50
83289;DHT22;73193;50.866;5.420;2024-01-11T06:13:04;-4.40;61.40
83289;DHT22;73193;50.866;5.420;2024-01-11T06:14:35;-4.50;61.60
83289;DHT22;73193;50.866;5.420;2024-01-11T06:16:06;-4.50;61.50
83289;DHT22;73193;50.866;5.420;2024-01-11T06:17:36;-4.40;61.50
83289;DHT22;73193;50.866;5.420;2024-01-11T06:19:07;-4.40;61.40
83289;DHT22;73193;50.866;5.420;2024-01-11T06:20:39;-4.40;61.10
83289;DHT22;73193;50.866;5.420;2024-01-11T06:22:09;-4.40;60.80
83289;DHT22;73193;50.866;5.420;2024-01-11T06:23:40;-4.40;60.70
83289;DHT22;73193;50.866;5.420;2024-01-11T06:25:11;-4.40;60.80
83289;DHT22;73193;50.866;5.420;2024-01-11T06:26:41;-4.50;61.00
83289;DHT22;73193;50.866;5.420;2024-01-11T06:28:12;-4.60;61.30
83289;DHT22;73193;50.866;5.420;2024-01-11T06:29:43;-4.60;61.40
83289;DHT22;73193;50.866;5.420;2024-01-11T06:31:13;-4.60;61.50
83289;DHT22;73193;50.866;5.420;2024-01-11T06:32:44;-4.60;61.50
83289;DHT22;73193;50.866;5.420;2024-01-11T06:34:15;-4.50;61.50
83289;DHT22;73193;50.866;5.420;2024-01-11T06:35:45;-4.60;61.70
83289;DHT22;73193;50.866;5.420;2024-01-11T06:37:16;-4.60;62.20
83289;DHT22;73193;50.866;5.420;2024-01-11T06:38:47;-4.60;62.30
83289;DHT22;73193;50.866;5.420;2024-01-11T06:40:17;-4.50;62.10
83289;DHT22;73193;50.866;5.420;2024-01-11T06:41:49;-4.50;62.40
83289;DHT22;73193;50.866;5.420;2024-01-11T06:43:20;-4.50;61.90
83289;DHT22;73193;50.866;5.420;2024-01-11T06:44:51;-4.50;61.60
83289;DHT22;73193;50.866;5.420;2024-01-11T06:46:23;-4.40;61.50
83289;DHT22;73193;50.866;5.420;2024-01-11T06:47:53;-4.40;61.00
83289;DHT22;73193;50.866;5.420;2024-01-11T06:49:24;-4.40;60.60
83289;DHT22;73193;50.866;5.420;2024-01-11T06:50:55;-4.40;60.80
83289;DHT22;73193;50.866;5.420;2024-01-11T06:52:25;-4.40;60.70
83289;DHT22;73193;50.866;5.420;2024-01-11T06:53:56;-4.50;60.80
83289;DHT22;73193;50.866;5.420;2024-01-11T06:55:26;-4.50;60.90
83289;DHT22;73193;50.866;5.420;2024-01-11T06:56:58;-4.50;61.20
83289;DHT22;73193;50.866;5.420;2024-01-11T06:58:28;-4.50;61.10
83289;DHT22;73193;50.866;5.420;2024-01-11T06:59:59;-4.60;61.00
83289;DHT22;73193;50.866;5.420;2024-01-11T07:01:30;-4.60;61.30
83289;DHT22;73193;50.866;5.420;2024-01-11T07:03:00;-4.60;61.20
83289;DHT22;73193;50.866;5.420;2024-01-11T07:04:31;-4.60;61.00
83289;DHT22;73193;50.866;5.420;2024-01-11T07:06:02;-4.60;61.30
83289;DHT22;73193;50.866;5.420;2024-01-11T07:07:36;-4.60;61.10
83289;DHT22;73193;50.866;5.420;2024-01-11T07:09:06;-4.60;61.80
83289;DHT22;73193;50.866;5.420;2024-01-11T07:10:37;-4.60;61.90
83289;DHT22;73193;50.866;5.420;2024-01-11T07:12:08;-4.60;61.70
83289;DHT22;73193;50.866;5.420;2024-01-11T07:13:39;-4.60;61.20
83289;DHT22;73193;50.866;5.420;2024-01-11T07:15:10;-4.60;61.30
83289;DHT22;73193;50.866;5.420;2024-01-11T07:16:41;-4.60;60.90
83289;DHT22;73193;50.866;5.420;2024-01-11T07:18:11;-4.60;61.30
83289;DHT22;73193;50.866;5.420;2024-01-11T07:19:42;-4.60;61.00
83289;DHT22;73193;50.866;5.420;2024-01-11T07:21:12;-4.60;60.70
83289;DHT22;73193;50.866;5.420;2024-01-11T07:22:44;-4.60;60.50
83289;DHT22;73193;50.866;5.420;2024-01-11T07:24:14;-4.60;60.70
83289;DHT22;73193;50.866;5.420;2024-01-11T07:25:46;-4.60;60.40
83289;DHT22;73193;50.866;5.420;2024-01-11T07:27:17;-4.60;60.50
83289;DHT22;73193;50.866;5.420;2024-01-11T07:28:47;-4.60;60.50
83289;DHT22;73193;50.866;5.420;2024-01-11T07:30:18;-4.60;60.30
83289;DHT22;73193;50.866;5.420;2024-01-11T07:31:49;-4.60;60.00
83289;DHT22;73193;50.866;5.420;2024-01-11T07:33:20;-4.60;60.30
83289;DHT22;73193;50.866;5.420;2024-01-11T07:34:51;-4.60;60.50
83289;DHT22;73193;50.866;5.420;2024-01-11T07:36:22;-4.60;60.40
83289;DHT22;73193;50.866;5.420;2024-01-11T07:37:52;-4.60;60.30
83289;DHT22;73193;50.866;5.420;2024-01-11T07:39:23;-4.70;61.00
83289;DHT22;73193;50.866;5.420;2024-01-11T07:40:54;-4.70;60.50
83289;DHT22;73193;50.866;5.420;2024-01-11T07:42:25;-4.70;60.50
83289;DHT22;73193;50.866;5.420;2024-01-11T07:43:56;-4.60;60.10
83289;DHT22;73193;50.866;5.420;2024-01-11T07:45:29;-4.70;59.90
83289;DHT22;73193;50.866;5.420;2024-01-11T07:47:00;-4.70;59.70
83289;DHT22;73193;50.866;5.420;2024-01-11T07:48:31;-4.60;59.40
83289;DHT22;73193;50.866;5.420;2024-01-11T07:50:02;-4.60;59.70
83289;DHT22;73193;50.866;5.420;2024-01-11T07:51:34;-4.70;59.90
83289;DHT22;73193;50.866;5.420;2024-01-11T07:53:07;-4.80;60.10
83289;DHT22;73193;50.866;5.420;2024-01-11T07:54:38;-4.70;59.70
83289;DHT22;73193;50.866;5.420;2024-01-11T07:56:09;-4.70;59.30
83289;DHT22;73193;50.866;5.420;2024-01-11T07:57:40;-4.70;59.70
83289;DHT22;73193;50.866;5.420;2024-01-11T07:59:10;-4.70;59.50
83289;DHT22;73193;50.866;5.420;2024-01-11T08:00:44;-4.60;59.20
83289;DHT22;73193;50.866;5.420;2024-01-11T08:02:15;-4.60;59.20
83289;DHT22;73193;50.866;5.420;2024-01-11T08:03:46;-4.60;59.10
83289;DHT22;73193;50.866;5.420;2024-01-11T08:05:17;-4.60;59.40
83289;DHT22;73193;50.866;5.420;2024-01-11T08:06:48;-4.70;59.60
83289;DHT22;73193;50.866;5.420;2024-01-11T08:08:19;-4.80;60.20
83289;DHT22;73193;50.866;5.420;2024-01-11T08:09:49;-4.70;60.30
83289;DHT22;73193;50.866;5.420;2024-01-11T08:11:20;-4.60;59.70
83289;DHT22;73193;50.866;5.420;2024-01-11T08:12:50;-4.60;60.30
83289;DHT22;73193;50.866;5.420;2024-01-11T08:14:22;-4.70;60.60
83289;DHT22;73193;50.866;5.420;2024-01-11T08:15:54;-4.60;60.70
83289;DHT22;73193;50.866;5.420;2024-01-11T08:17:25;-4.60;60.80
83289;DHT22;73193;50.866;5.420;2024-01-11T08:18:56;-4.60;61.00
83289;DHT22;73193;50.866;5.420;2024-01-11T08:20:26;-4.60;61.10
83289;DHT22;73193;50.866;5.420;2024-01-11T08:21:58;-4.60;60.90
83289;DHT22;73193;50.866;5.420;2024-01-11T08:23:28;-4.50;60.60
83289;DHT22;73193;50.866;5.420;2024-01-11T08:24:59;-4.40;60.40
83289;DHT22;73193;50.866;5.420;2024-01-11T08:26:30;-4.30;60.40
83289;DHT22;73193;50.866;5.420;2024-01-11T08:28:01;-4.30;60.40
83289;DHT22;73193;50.866;5.420;2024-01-11T08:29:33;-4.20;60.10
83289;DHT22;73193;50.866;5.420;2024-01-11T08:31:04;-4.20;60.60
83289;DHT22;73193;50.866;5.420;2024-01-11T08:32:35;-4.20;60.30
83289;DHT22;73193;50.866;5.420;2024-01-11T08:34:09;-4.10;60.50
83289;DHT22;73193;50.866;5.420;2024-01-11T08:35:41;-4.10;60.70
83289;DHT22;73193;50.866;5.420;2024-01-11T08:37:12;-4.10;61.00
83289;DHT22;73193;50.866;5.420;2024-01-11T08:38:42;-4.00;60.80
83289;DHT22;73193;50.866;5.420;2024-01-11T08:40:13;-4.00;60.70
83289;DHT22;73193;50.866;5.420;2024-01-11T08:41:44;-3.90;61.10
83289;DHT22;73193;50.866;5.420;2024-01-11T08:43:14;-3.80;61.00
83289;DHT22;73193;50.866;5.420;2024-01-11T08:44:45;-3.80;60.60
83289;DHT22;73193;50.866;5.420;2024-01-11T08:46:24;-3.60;60.20
83289;DHT22;73193;50.866;5.420;2024-01-11T08:47:56;-3.60;60.30
83289;DHT22;73193;50.866;5.420;2024-01-11T08:49:27;-3.70;61.30
83289;DHT22;73193;50.866;5.420;2024-01-11T08:50:57;-3.60;60.90
83289;DHT22;73193;50.866;5.420;2024-01-11T08:52:28;-3.50;60.90
83289;DHT22;73193;50.866;5.420;2024-01-11T08:53:59;-3.50;60.70
83289;DHT22;73193;50.866;5.420;2024-01-11T08:55:30;-3.60;61.30
83289;DHT22;73193;50.866;5.420;2024-01-11T08:57:01;-3.60;61.20
83289;DHT22;73193;50.866;5.420;2024-01-11T08:58:32;-3.60;61.90
83289;DHT22;73193;50.866;5.420;2024-01-11T09:00:03;-3.40;61.70
83289;DHT22;73193;50.866;5.420;2024-01-11T09:01:36;-3.20;61.00
83289;DHT22;73193;50.866;5.420;2024-01-11T09:03:07;-3.10;61.10
83289;DHT22;73193;50.866;5.420;2024-01-11T09:04:38;-3.10;60.90
83289;DHT22;73193;50.866;5.420;2024-01-11T09:06:10;-3.00;60.80
83289;DHT22;73193;50.866;5.420;2024-01-11T09:07:41;-2.90;60.70
83289;DHT22;73193;50.866;5.420;2024-01-11T09:09:13;-2.90;61.00
83289;DHT22;73193;50.866;5.420;2024-01-11T09:10:44;-2.90;60.80
83289;DHT22;73193;50.866;5.420;2024-01-11T09:12:14;-2.80;60.60
83289;DHT22;73193;50.866;5.420;2024-01-11T09:13:45;-2.60;60.60
83289;DHT22;73193;50.866;5.420;2024-01-11T09:15:16;-2.60;59.90
83289;DHT22;73193;50.866;5.420;2024-01-11T09:16:46;-2.50;59.90
83289;DHT22;73193;50.866;5.420;2024-01-11T09:18:19;-2.50;60.10
83289;DHT22;73193;50.866;5.420;2024-01-11T09:19:51;-2.40;59.80
83289;DHT22;73193;50.866;5.420;2024-01-11T09:21:22;-2.30;59.80
83289;DHT22;73193;50.866;5.420;2024-01-11T09:22:52;-2.30;59.40
83289;DHT22;73193;50.866;5.420;2024-01-11T09:24:23;-2.40;60.00
83289;DHT22;73193;50.866;5.420;2024-01-11T09:25:54;-2.40;59.70
83289;DHT22;73193;50.866;5.420;2024-01-11T09:27:24;-2.30;59.80
83289;DHT22;73193;50.866;5.420;2024-01-11T09:28:55;-2.10;59.70
83289;DHT22;73193;50.866;5.420;2024-01-11T09:30:26;-2.10;59.10
83289;DHT22;73193;50.866;5.420;2024-01-11T09:31:58;-2.00;59.10
83289;DHT22;73193;50.866;5.420;2024-01-11T09:33:28;-1.90;59.00
83289;DHT22;73193;50.866;5.420;2024-01-11T09:34:59;-1.80;58.70